createdAt,value
2022-10-02T00:03:08.156Z,41.24
2022-10-02T00:08:08.324Z,40.52
2022-10-02T00:13:15.481Z,40.82
2022-10-02T00:18:05.820Z,41.04
2022-10-02T00:23:04.999Z,39.83
2022-10-02T00:28:04.222Z,39.50
2022-10-02T00:33:03.410Z,39.91
2022-10-02T00:38:05.713Z,38.68
2022-10-02T00:43:01.874Z,38.67
2022-10-02T00:48:02.049Z,39.51
2022-10-02T00:52:59.238Z,40.55
2022-10-02T00:57:59.465Z,40.74
2022-10-02T01:02:58.782Z,41.46
2022-10-02T01:07:58.120Z,41.67
2022-10-02T01:12:57.433Z,42.09
2022-10-02T01:17:56.743Z,42.31
2022-10-02T01:22:56.062Z,42.41
2022-10-02T01:27:55.432Z,43.32
2022-10-02T01:32:54.585Z,44.06
2022-10-02T01:37:55.727Z,44.26
2022-10-02T01:42:53.056Z,44.68
2022-10-02T01:47:53.361Z,45.40
2022-10-02T01:52:51.638Z,46.66
2022-10-02T01:57:51.900Z,47.88
2022-10-02T02:02:51.195Z,48.00
2022-10-02T02:07:49.503Z,48.30
2022-10-02T02:12:48.784Z,46.48
2022-10-02T02:17:48.106Z,46.98
2022-10-02T02:22:48.443Z,48.43
2022-10-02T02:27:47.785Z,49.05
2022-10-02T02:32:46.068Z,48.25
2022-10-02T02:37:46.410Z,48.94
2022-10-02T02:42:44.538Z,50.42
2022-10-02T02:47:43.841Z,48.47
2022-10-02T02:52:43.167Z,47.97
2022-10-02T02:57:42.501Z,47.15
2022-10-02T03:02:42.819Z,47.25
2022-10-02T03:07:41.140Z,47.57
2022-10-02T03:12:40.449Z,47.17
2022-10-02T03:17:39.889Z,47.67
2022-10-02T03:22:40.043Z,47.57
2022-10-02T03:27:38.359Z,48.17
2022-10-02T03:32:37.686Z,49.09
2022-10-02T03:37:38.997Z,48.79
2022-10-02T03:42:35.291Z,49.69
2022-10-02T03:47:37.610Z,50.72
2022-10-02T03:52:34.909Z,49.99
2022-10-02T03:57:34.228Z,46.92
2022-10-02T04:02:33.568Z,47.42
2022-10-02T04:07:32.713Z,49.27
2022-10-02T04:12:32.036Z,49.99
2022-10-02T04:17:32.418Z,48.55
2022-10-02T04:22:31.540Z,48.45
2022-10-02T04:27:29.952Z,49.07
2022-10-02T04:32:29.069Z,48.77
2022-10-02T04:37:28.424Z,49.19
2022-10-02T04:42:26.721Z,50.12
2022-10-02T04:47:26.869Z,50.12
2022-10-02T04:52:26.209Z,49.09
2022-10-02T04:57:25.361Z,48.69
2022-10-02T05:02:27.697Z,47.07
2022-10-02T05:07:23.778Z,47.17
2022-10-02T05:12:23.101Z,48.60
2022-10-02T05:17:22.220Z,48.82
2022-10-02T05:22:21.554Z,49.02
2022-10-02T05:27:20.882Z,48.02
2022-10-02T05:32:20.190Z,48.32
2022-10-02T05:37:20.480Z,50.34
2022-10-02T05:42:19.806Z,48.92
2022-10-02T05:47:18.105Z,50.54
2022-10-02T05:52:17.404Z,50.64
2022-10-02T05:57:18.696Z,46.97
2022-10-02T06:02:16.053Z,47.13
2022-10-02T06:07:16.179Z,46.92
2022-10-02T06:12:15.491Z,44.71
2022-10-02T06:17:16.818Z,44.69
2022-10-02T06:22:14.077Z,45.39
2022-10-02T06:27:12.372Z,45.48
2022-10-02T06:32:11.663Z,46.08
2022-10-02T06:37:10.964Z,46.41
2022-10-02T06:42:11.239Z,46.08
2022-10-02T06:47:11.520Z,47.30
2022-10-02T06:52:10.794Z,45.53
2022-10-02T06:57:08.140Z,46.73
2022-10-02T07:02:08.350Z,46.33
2022-10-02T07:07:06.444Z,45.81
2022-10-02T07:12:05.751Z,46.43
2022-10-02T07:17:06.045Z,46.33
2022-10-02T07:22:20.334Z,45.53
2022-10-02T07:27:04.497Z,46.13
2022-10-02T07:32:02.806Z,47.35
2022-10-02T07:37:03.110Z,47.35
2022-10-02T07:42:02.395Z,46.23
2022-10-02T07:47:00.717Z,44.93
2022-10-02T07:51:59.851Z,44.31
2022-10-02T07:56:59.147Z,44.09
2022-10-02T08:01:58.549Z,43.89
2022-10-02T08:06:58.663Z,43.37
2022-10-02T08:11:57.933Z,43.47
2022-10-02T08:16:56.372Z,43.07
2022-10-02T08:21:56.509Z,42.75
2022-10-02T08:26:55.613Z,43.35
2022-10-02T08:31:54.023Z,42.33
2022-10-02T08:36:53.196Z,42.73
2022-10-02T08:41:52.498Z,42.33
2022-10-02T08:46:51.797Z,42.83
2022-10-02T08:51:51.098Z,43.43
2022-10-02T08:56:50.401Z,43.11
2022-10-02T09:01:49.699Z,41.36
2022-10-02T09:06:49.002Z,40.54
2022-10-02T09:11:48.332Z,39.71
2022-10-02T09:16:47.659Z,39.19
2022-10-02T09:21:47.916Z,39.17
2022-10-02T09:26:47.214Z,38.96
2022-10-02T09:31:46.543Z,39.75
2022-10-02T09:36:44.661Z,40.26
2022-10-02T09:41:43.952Z,40.36
2022-10-02T09:46:43.237Z,40.78
2022-10-02T09:51:42.537Z,40.56
2022-10-02T09:56:41.875Z,39.43
2022-10-02T10:01:41.186Z,39.73
2022-10-02T10:06:41.507Z,39.83
2022-10-02T10:11:40.904Z,39.65
2022-10-02T10:16:39.028Z,39.57
2022-10-02T10:21:37.467Z,40.44
2022-10-02T10:26:37.475Z,40.36
2022-10-02T10:31:37.067Z,41.38
2022-10-02T10:36:36.117Z,41.58
2022-10-02T10:41:35.744Z,40.36
2022-10-02T10:46:34.677Z,40.17
2022-10-02T10:51:34.211Z,40.44
2022-10-02T10:56:33.281Z,41.55
2022-10-02T11:01:33.603Z,40.66
2022-10-02T11:06:32.751Z,41.46
2022-10-02T11:11:31.023Z,41.67
2022-10-02T11:16:31.344Z,41.28
2022-10-02T11:21:29.625Z,42.57
2022-10-02T11:26:29.866Z,43.88
2022-10-02T11:31:28.188Z,42.69
2022-10-02T11:36:28.456Z,42.17
2022-10-02T11:41:26.757Z,40.52
2022-10-02T11:46:26.018Z,41.02
2022-10-02T11:51:25.303Z,43.91
2022-10-02T11:56:23.600Z,45.32
2022-10-02T12:01:23.983Z,44.75
2022-10-02T12:06:22.133Z,42.58
2022-10-02T12:11:22.370Z,44.25
2022-10-02T12:16:21.517Z,44.43
2022-10-02T12:21:21.638Z,45.64
2022-10-02T12:26:19.920Z,42.52
2022-10-02T12:31:20.130Z,42.50
2022-10-02T12:36:19.321Z,43.91
2022-10-02T12:41:18.506Z,45.03
2022-10-02T12:46:16.723Z,45.52
2022-10-02T12:51:18.028Z,45.64
2022-10-02T12:56:15.180Z,46.66
2022-10-02T13:01:15.433Z,47.05
2022-10-02T13:06:13.596Z,46.36
2022-10-02T13:11:12.817Z,46.04
2022-10-02T13:16:12.040Z,45.82
2022-10-02T13:21:12.221Z,46.83
2022-10-02T13:26:11.397Z,46.51
2022-10-02T13:31:10.615Z,42.05
2022-10-02T13:36:08.797Z,42.27
2022-10-02T13:41:08.007Z,42.47
2022-10-02T13:46:07.289Z,43.58
2022-10-02T13:51:06.513Z,47.05
2022-10-02T13:56:05.710Z,45.19
2022-10-02T14:01:04.948Z,45.81
2022-10-02T14:06:04.126Z,47.70
2022-10-02T14:11:03.306Z,48.49
2022-10-02T14:16:02.573Z,49.38
2022-10-02T14:21:01.750Z,46.41
2022-10-02T14:26:00.994Z,46.42
2022-10-02T14:31:00.160Z,46.72
2022-10-02T14:36:00.331Z,48.32
2022-10-02T14:40:59.540Z,46.72
2022-10-02T14:45:57.769Z,46.50
2022-10-02T14:50:58.967Z,46.20
2022-10-02T14:55:56.127Z,46.28
2022-10-02T15:00:56.378Z,45.79
2022-10-02T15:05:56.597Z,46.56
2022-10-02T15:10:53.777Z,47.45
2022-10-02T15:15:55.044Z,47.17
2022-10-02T15:20:52.190Z,48.69
2022-10-02T15:25:51.393Z,48.19
2022-10-02T15:30:50.572Z,49.08
2022-10-02T15:35:50.752Z,48.41
2022-10-02T15:40:50.946Z,51.10
2022-10-02T15:45:49.230Z,49.53
2022-10-02T15:50:47.430Z,51.12
2022-10-02T15:55:47.650Z,48.74
2022-10-02T16:00:46.854Z,50.25
2022-10-02T16:05:45.016Z,50.93
2022-10-02T16:10:45.203Z,50.73
2022-10-02T16:15:42.399Z,48.04
2022-10-02T16:20:42.544Z,47.20
2022-10-02T16:25:43.709Z,48.59
2022-10-02T16:30:40.901Z,49.58
2022-10-02T16:35:43.687Z,49.49
2022-10-02T16:40:39.260Z,47.10
2022-10-02T16:45:39.553Z,48.89
2022-10-02T16:50:42.197Z,51.20
2022-10-02T16:55:38.016Z,50.70
2022-10-02T17:00:37.241Z,48.94
2022-10-02T17:05:37.438Z,49.83
2022-10-02T17:10:34.640Z,50.15
2022-10-02T17:15:35.816Z,49.88
2022-10-02T17:20:32.993Z,51.00
2022-10-02T17:25:32.206Z,51.89
2022-10-02T17:30:31.456Z,53.02
2022-10-02T17:35:30.637Z,53.44
2022-10-02T17:40:30.833Z,52.37
2022-10-02T17:45:29.093Z,50.05
2022-10-02T17:50:28.311Z,49.28
2022-10-02T17:55:28.576Z,48.46
2022-10-02T18:00:26.828Z,48.36
2022-10-02T18:05:28.035Z,48.66
2022-10-02T18:10:24.411Z,48.76
2022-10-02T18:15:26.149Z,47.64
2022-10-02T18:20:24.741Z,48.07
2022-10-02T18:25:22.929Z,48.66
2022-10-02T18:30:22.132Z,48.76
2022-10-02T18:35:21.301Z,48.36
2022-10-02T18:40:20.517Z,47.51
2022-10-02T18:45:20.976Z,47.99
2022-10-02T18:50:20.032Z,47.69
2022-10-02T18:55:18.476Z,47.33
2022-10-02T19:00:19.509Z,47.89
2022-10-02T19:05:15.708Z,46.81
2022-10-02T19:10:16.889Z,46.96
2022-10-02T19:15:16.057Z,46.81
2022-10-02T19:20:17.250Z,45.18
2022-10-02T19:25:12.405Z,42.51
2022-10-02T19:30:12.605Z,42.31
2022-10-02T19:35:12.929Z,41.69
2022-10-02T19:40:13.189Z,41.02
2022-10-02T19:45:10.255Z,41.44
2022-10-02T19:50:09.423Z,41.82
2022-10-02T19:55:12.310Z,42.31
2022-10-02T20:00:09.119Z,41.91
2022-10-02T20:05:09.185Z,41.82
2022-10-02T20:10:06.344Z,41.82
2022-10-02T20:15:06.504Z,41.61
2022-10-02T20:20:05.691Z,42.93
2022-10-02T20:25:03.863Z,41.69
2022-10-02T20:30:03.047Z,41.30
2022-10-02T20:35:02.239Z,41.20
2022-10-02T20:40:02.506Z,41.30
2022-10-02T20:45:01.725Z,41.99
2022-10-02T20:49:59.915Z,42.58
2022-10-02T20:55:00.102Z,42.93
2022-10-02T20:59:58.353Z,43.72
2022-10-02T21:04:59.567Z,43.62
2022-10-02T21:09:56.746Z,43.10
2022-10-02T21:14:56.924Z,42.96
2022-10-02T21:19:55.099Z,42.65
2022-10-02T21:24:54.409Z,43.34
2022-10-02T21:29:55.637Z,43.76
2022-10-02T21:34:53.788Z,43.74
2022-10-02T21:39:52.952Z,43.84
2022-10-02T21:44:51.164Z,44.57
2022-10-02T21:49:50.313Z,44.87
2022-10-02T21:54:49.498Z,45.59
2022-10-02T21:59:48.658Z,44.97
2022-10-02T22:04:47.820Z,44.06
2022-10-02T22:09:46.965Z,43.22
2022-10-02T22:14:46.149Z,43.12
2022-10-02T22:19:45.316Z,41.99
2022-10-02T22:24:44.499Z,42.11
2022-10-02T22:29:44.684Z,43.82
2022-10-02T22:34:42.871Z,46.46
2022-10-02T22:39:42.024Z,47.38
2022-10-02T22:44:43.221Z,47.40
2022-10-02T22:49:40.391Z,46.98
2022-10-02T22:54:39.578Z,47.00
2022-10-02T22:59:38.744Z,46.06
2022-10-02T23:04:37.970Z,45.76
2022-10-02T23:09:37.167Z,45.64
2022-10-02T23:14:36.346Z,45.47
2022-10-02T23:19:37.619Z,45.45
2022-10-02T23:24:34.793Z,45.25
2022-10-02T23:29:34.018Z,45.15
2022-10-02T23:34:34.199Z,45.17
2022-10-02T23:39:33.371Z,45.49
2022-10-02T23:44:32.669Z,46.53
2022-10-02T23:49:32.000Z,47.79
2022-10-02T23:54:30.306Z,49.13
2022-10-02T23:59:29.634Z,49.85
